Time;durP1;ratioP1;P1;durP2;ratioP2;P2;SDS_P1;SDS_P2;PMS_P1;PMS_P2;Temp;Humidity;BMP_temperature;BMP_pressure;BME280_temperature;BME280_humidity;BME280_pressure;Samples;Min_cycle;Max_cycle;Signal;HPM_P1;HPM_P2
2023/01/30 00:01:30;;;;;;;50.85;28.40;;;;;;;3.42;100.00;101695.53;4992006;28;20087;-77
2023/01/30 00:03:56;;;;;;;46.88;27.88;;;;;;;3.43;100.00;101702.31;4995095;28;20030;-77
2023/01/30 00:06:22;;;;;;;46.17;26.80;;;;;;;3.43;100.00;101692.06;4996981;28;20041;-78
2023/01/30 00:08:48;;;;;;;45.83;27.90;;;;;;;3.42;100.00;101685.25;4985438;28;20102;-77
2023/01/30 00:11:15;;;;;;;47.50;28.35;;;;;;;3.40;100.00;101698.16;5005095;28;20041;-76
2023/01/30 00:13:42;;;;;;;48.67;26.90;;;;;;;3.46;100.00;101687.66;4998409;28;20030;-77
2023/01/30 00:16:08;;;;;;;48.10;25.55;;;;;;;3.50;100.00;101693.50;5006647;28;20077;-76
2023/01/30 00:18:35;;;;;;;52.35;28.75;;;;;;;3.46;100.00;101681.69;4998369;28;20397;-77
2023/01/30 00:21:03;;;;;;;45.80;28.00;;;;;;;3.54;100.00;101689.91;5000483;28;20109;-77
2023/01/30 00:23:30;;;;;;;47.00;28.00;;;;;;;3.56;100.00;101692.44;5002355;28;20036;-77
2023/01/30 00:25:56;;;;;;;51.25;28.02;;;;;;;3.52;100.00;101678.88;5000792;28;20038;-77
2023/01/30 00:28:22;;;;;;;48.10;27.45;;;;;;;3.57;100.00;101689.81;4996768;28;20057;-77
2023/01/30 00:30:49;;;;;;;45.83;27.75;;;;;;;3.54;100.00;101669.41;5006158;28;20034;-77
2023/01/30 00:33:15;;;;;;;50.20;30.23;;;;;;;3.58;100.00;101668.41;5006704;28;20021;-78
2023/01/30 00:35:47;;;;;;;51.72;28.90;;;;;;;3.61;100.00;101665.72;4994482;28;20052;-77
2023/01/30 00:38:13;;;;;;;51.92;31.15;;;;;;;3.61;100.00;101655.47;5001401;28;20044;-77
2023/01/30 00:40:38;;;;;;;45.85;27.95;;;;;;;3.64;100.00;101650.19;4979311;28;20421;-78
2023/01/30 00:48:35;;;;;;;46.88;27.65;;;;;;;3.72;100.00;101658.41;4993734;28;20501;-77
2023/01/30 00:51:01;;;;;;;45.72;29.10;;;;;;;3.76;100.00;101656.56;4997912;28;20034;-77
2023/01/30 00:53:26;;;;;;;48.95;29.50;;;;;;;3.76;100.00;101658.31;5003272;28;20109;-77
2023/01/30 00:55:53;;;;;;;43.42;27.63;;;;;;;3.77;100.00;101652.28;4985460;28;20439;-76
2023/01/30 00:58:19;;;;;;;47.83;29.85;;;;;;;3.83;100.00;101644.31;4996600;28;20382;-77
2023/01/30 01:00:44;;;;;;;45.67;29.13;;;;;;;3.86;100.00;101650.19;4998100;28;20564;-76
2023/01/30 01:03:09;;;;;;;46.28;28.58;;;;;;;3.83;100.00;101640.03;4998825;28;20053;-78
2023/01/30 01:05:35;;;;;;;48.72;29.73;;;;;;;3.90;100.00;101635.47;4997244;28;20060;-78
2023/01/30 01:08:01;;;;;;;48.67;29.55;;;;;;;3.91;100.00;101637.16;5003217;28;20022;-79
2023/01/30 01:10:26;;;;;;;46.45;29.50;;;;;;;3.90;100.00;101625.22;5001548;28;20096;-77
2023/01/30 01:12:52;;;;;;;46.30;29.40;;;;;;;3.92;100.00;101620.88;4991821;28;20093;-78
2023/01/30 01:15:18;;;;;;;44.45;28.63;;;;;;;3.91;100.00;101612.34;4998045;28;20054;-77
2023/01/30 01:17:45;;;;;;;48.28;29.95;;;;;;;3.92;100.00;101628.56;5010397;28;20454;-76
2023/01/30 01:20:11;;;;;;;47.38;28.98;;;;;;;3.91;100.00;101626.91;5004353;28;20054;-77
2023/01/30 01:22:37;;;;;;;46.10;28.15;;;;;;;3.97;100.00;101635.19;5002548;28;20034;-77
2023/01/30 01:25:03;;;;;;;47.00;29.00;;;;;;;3.96;100.00;101625.00;5000745;28;20121;-78
2023/01/30 01:27:28;;;;;;;45.45;27.95;;;;;;;3.95;100.00;101628.44;5003349;28;20482;-78
2023/01/30 01:29:53;;;;;;;46.72;27.50;;;;;;;3.96;100.00;101635.25;4986093;28;20160;-78
2023/01/30 01:32:20;;;;;;;46.88;29.13;;;;;;;3.97;100.00;101617.22;5007129;28;20030;-78
2023/01/30 01:34:45;;;;;;;44.30;27.58;;;;;;;3.96;100.00;101599.31;5002926;28;20382;-77
2023/01/30 01:37:11;;;;;;;43.00;28.38;;;;;;;4.00;100.00;101605.97;4985687;28;20030;-77
2023/01/30 01:42:23;;;;;;;43.67;26.55;;;;;;;4.02;100.00;101595.66;5002326;28;20040;-78
2023/01/30 01:45:16;;;;;;;46.10;27.65;;;;;;;4.05;100.00;101598.91;4996900;28;20027;-78
2023/01/30 01:48:09;;;;;;;42.92;27.65;;;;;;;4.06;100.00;101592.88;4996588;28;20036;-77
2023/01/30 01:50:56;;;;;;;43.78;26.58;;;;;;;4.07;100.00;101581.75;4997240;28;20098;-78
2023/01/30 01:53:28;;;;;;;40.63;26.17;;;;;;;4.03;100.00;101575.06;5005724;28;20061;-77
2023/01/30 01:55:56;;;;;;;39.58;25.70;;;;;;;4.06;100.00;101569.78;5003937;28;20075;-78
2023/01/30 01:58:28;;;;;;;39.45;24.17;;;;;;;4.10;100.00;101576.47;5002308;28;20057;-77
2023/01/30 02:00:57;;;;;;;38.28;24.90;;;;;;;4.14;100.00;101572.03;4997928;28;20527;-78
2023/01/30 02:03:25;;;;;;;40.67;24.63;;;;;;;4.13;100.00;101563.50;5000131;28;20038;-78
2023/01/30 02:05:53;;;;;;;40.38;23.90;;;;;;;4.18;100.00;101566.69;4986721;28;20045;-77
2023/01/30 02:08:25;;;;;;;38.13;24.10;;;;;;;4.19;100.00;101554.72;5008399;28;20100;-78
2023/01/30 02:11:04;;;;;;;32.08;21.63;;;;;;;4.29;100.00;101552.56;4985089;28;20026;-78
2023/01/30 02:13:30;;;;;;;31.95;20.13;;;;;;;4.31;100.00;101548.22;5005101;28;20049;-78
2023/01/30 02:16:00;;;;;;;28.88;18.52;;;;;;;4.32;100.00;101534.47;5001914;28;20050;-78
2023/01/30 02:18:28;;;;;;;28.38;17.60;;;;;;;4.45;100.00;101530.44;4989438;28;20028;-77
2023/01/30 02:21:11;;;;;;;25.47;14.67;;;;;;;4.54;100.00;101535.19;5004722;28;20382;-78
2023/01/30 02:23:55;;;;;;;28.13;15.80;;;;;;;4.63;100.00;101542.44;5005015;28;20022;-77
2023/01/30 02:26:58;;;;;;;27.35;15.23;;;;;;;4.67;100.00;101536.28;5003467;28;20037;-78
2023/01/30 02:29:41;;;;;;;23.77;14.43;;;;;;;4.75;100.00;101538.50;5005429;28;20080;-78
2023/01/30 02:32:29;;;;;;;22.15;13.80;;;;;;;4.79;100.00;101532.31;5005100;28;20136;-76
2023/01/30 02:35:13;;;;;;;23.77;14.40;;;;;;;4.86;100.00;101538.00;5005893;28;20033;-76
2023/01/30 02:38:29;;;;;;;23.15;15.40;;;;;;;4.85;100.00;101531.19;5003618;28;20053;-78
2023/01/30 02:41:21;;;;;;;18.90;12.13;;;;;;;4.89;100.00;101525.03;4996822;28;20068;-77
2023/01/30 02:44:14;;;;;;;22.60;12.68;;;;;;;4.87;100.00;101525.06;4998572;28;20030;-79
2023/01/30 02:46:54;;;;;;;19.80;13.25;;;;;;;4.94;100.00;101529.03;4999748;28;20088;-79
2023/01/30 02:49:27;;;;;;;24.63;12.95;;;;;;;4.91;100.00;101518.06;4999574;28;20029;-79
2023/01/30 02:51:55;;;;;;;19.27;12.35;;;;;;;4.95;100.00;101519.59;5007260;28;20032;-79
2023/01/30 02:54:20;;;;;;;21.38;13.02;;;;;;;4.97;100.00;101517.78;5002715;28;20053;-80
2023/01/30 02:56:51;;;;;;;22.02;11.02;;;;;;;4.93;100.00;101504.25;5000742;28;20109;-80
2023/01/30 02:59:44;;;;;;;20.05;11.93;;;;;;;4.97;100.00;101517.78;5004354;28;20056;-81
2023/01/30 03:02:21;;;;;;;17.13;11.07;;;;;;;4.96;100.00;101510.97;4992134;28;20479;-79
2023/01/30 03:05:30;;;;;;;18.52;11.30;;;;;;;4.99;100.00;101503.97;5006073;28;20030;-80
2023/01/30 03:08:27;;;;;;;19.33;11.07;;;;;;;5.02;100.00;101508.09;5006383;28;20076;-80
2023/01/30 03:11:06;;;;;;;18.40;11.75;;;;;;;4.99;100.00;101501.38;4975112;28;20545;-82
2023/01/30 03:13:48;;;;;;;20.45;11.55;;;;;;;4.97;100.00;101498.03;4982664;28;20030;-82
2023/01/30 03:16:20;;;;;;;19.45;10.90;;;;;;;4.95;100.00;101488.75;5008048;28;20042;-81
2023/01/30 03:18:47;;;;;;;20.48;11.82;;;;;;;4.93;100.00;101490.53;5006688;28;20080;-82
2023/01/30 03:21:12;;;;;;;18.98;11.13;;;;;;;4.95;100.00;101499.03;5000767;28;20482;-82
2023/01/30 03:23:38;;;;;;;14.88;10.30;;;;;;;4.93;100.00;101490.53;4979655;28;20042;-82
2023/01/30 03:26:07;;;;;;;17.13;10.93;;;;;;;4.94;100.00;101484.50;4993596;28;20044;-80
2023/01/30 03:28:33;;;;;;;16.48;10.65;;;;;;;4.95;100.00;101484.44;4999129;28;20025;-81
2023/01/30 03:30:58;;;;;;;17.60;10.43;;;;;;;4.98;100.00;101489.41;5002503;28;20030;-82
2023/01/30 03:33:24;;;;;;;17.52;10.05;;;;;;;4.98;100.00;101483.44;4998079;28;20040;-82
2023/01/30 03:35:50;;;;;;;15.70;10.07;;;;;;;4.94;100.00;101476.81;5004206;28;20157;-81
2023/01/30 03:38:15;;;;;;;16.70;9.55;;;;;;;4.96;100.00;101485.25;5005216;28;20301;-82
2023/01/30 03:40:41;;;;;;;14.70;9.50;;;;;;;4.99;100.00;101480.00;4982091;28;20026;-82
2023/01/30 03:43:06;;;;;;;15.25;9.20;;;;;;;4.99;100.00;101474.84;4985248;28;20038;-82
2023/01/30 03:45:32;;;;;;;20.48;10.13;;;;;;;4.96;100.00;101474.97;4989324;28;20032;-82
2023/01/30 03:47:57;;;;;;;15.65;9.50;;;;;;;4.96;100.00;101464.69;5004511;28;20049;-82
2023/01/30 03:50:23;;;;;;;16.30;8.82;;;;;;;4.96;100.00;101470.66;5007387;28;20037;-82
2023/01/30 03:52:48;;;;;;;16.65;9.38;;;;;;;4.96;100.00;101464.69;4995237;28;20034;-82
2023/01/30 03:55:13;;;;;;;17.27;9.90;;;;;;;4.92;100.00;101452.88;5000529;28;20030;-82
2023/01/30 03:57:39;;;;;;;15.65;8.98;;;;;;;4.97;100.00;101474.06;5003185;28;20040;-83
2023/01/30 04:00:05;;;;;;;14.65;9.20;;;;;;;4.95;100.00;101457.91;5002499;28;20401;-83
2023/01/30 04:02:30;;;;;;;19.63;9.77;;;;;;;4.98;100.00;101468.00;4995622;28;20053;-83
2023/01/30 04:04:56;;;;;;;16.77;9.15;;;;;;;4.94;100.00;101461.38;5004838;28;20061;-83
2023/01/30 04:07:21;;;;;;;19.05;10.15;;;;;;;4.98;100.00;101468.00;4980337;28;20352;-82
2023/01/30 04:09:46;;;;;;;14.23;9.25;;;;;;;5.01;100.00;101467.88;4990115;28;20343;-82
2023/01/30 04:12:12;;;;;;;15.63;8.98;;;;;;;4.98;100.00;101468.00;5005855;28;20060;-83
2023/01/30 04:14:38;;;;;;;18.30;9.30;;;;;;;5.05;100.00;101470.25;4982182;28;20121;-81
2023/01/30 04:17:03;;;;;;;19.63;9.73;;;;;;;5.07;100.00;101472.72;4997304;28;20108;-82
2023/01/30 04:19:28;;;;;;;18.63;9.00;;;;;;;4.99;100.00;101449.97;5006926;28;20038;-82
2023/01/30 04:21:54;;;;;;;21.35;9.07;;;;;;;5.05;100.00;101459.13;5002355;28;20062;-82
2023/01/30 04:24:19;;;;;;;18.15;9.20;;;;;;;5.09;100.00;101458.06;5002390;28;20356;-82
2023/01/30 04:26:44;;;;;;;16.88;8.35;;;;;;;5.05;100.00;101448.84;4988426;28;20437;-82
2023/01/30 04:29:10;;;;;;;15.50;8.57;;;;;;;5.07;100.00;101457.31;4988363;28;20045;-83
2023/01/30 04:31:35;;;;;;;18.25;13.15;;;;;;;5.07;100.00;101460.69;4998313;28;20029;-82
2023/01/30 04:34:00;;;;;;;15.35;8.70;;;;;;;5.10;100.00;101479.44;4998593;28;20018;-82
2023/01/30 04:36:28;;;;;;;15.38;8.80;;;;;;;5.07;100.00;101467.59;5005337;28;20026;-82
2023/01/30 04:38:53;;;;;;;25.30;9.75;;;;;;;5.11;100.00;101466.53;4997723;28;20091;-83
2023/01/30 04:41:18;;;;;;;16.70;8.63;;;;;;;5.15;100.00;101470.59;4975854;28;20022;-82
2023/01/30 04:43:44;;;;;;;17.70;9.20;;;;;;;5.18;100.00;101467.91;5002861;28;20033;-83
2023/01/30 04:46:09;;;;;;;18.55;8.48;;;;;;;5.17;100.00;101478.28;5001951;28;20439;-82
2023/01/30 04:48:34;;;;;;;19.17;8.02;;;;;;;5.17;100.00;101476.53;5001887;28;20528;-82
2023/01/30 04:51:00;;;;;;;19.42;8.07;;;;;;;5.22;100.00;101477.13;4997561;28;20788;-82
2023/01/30 04:53:25;;;;;;;19.80;8.57;;;;;;;5.19;100.00;101467.00;4981572;28;20638;-82
2023/01/30 04:55:51;;;;;;;14.15;7.32;;;;;;;5.23;100.00;101478.81;4985696;28;20045;-82
2023/01/30 04:58:18;;;;;;;17.10;7.50;;;;;;;5.22;100.00;101474.56;4999124;28;20064;-81
2023/01/30 05:00:44;;;;;;;16.98;7.55;;;;;;;5.18;100.00;101477.34;5002568;28;20116;-80
2023/01/30 05:03:09;;;;;;;16.60;6.80;;;;;;;5.20;100.00;101489.22;5003675;28;20113;-82
2023/01/30 05:05:34;;;;;;;17.98;7.40;;;;;;;5.20;100.00;101483.25;5002287;28;20054;-82
2023/01/30 05:08:00;;;;;;;13.45;6.85;;;;;;;5.25;100.00;101487.25;5003159;28;20064;-82
2023/01/30 05:10:25;;;;;;;18.10;7.10;;;;;;;5.24;100.00;101475.31;4982726;28;20122;-82
2023/01/30 05:12:51;;;;;;;17.77;6.65;;;;;;;5.26;100.00;101473.50;5000525;28;20096;-82
2023/01/30 05:15:16;;;;;;;14.13;6.78;;;;;;;5.29;100.00;101475.94;4998670;28;20038;-80
2023/01/30 05:17:41;;;;;;;17.88;7.35;;;;;;;5.30;100.00;101475.00;4986621;28;20030;-81
2023/01/30 05:20:10;;;;;;;15.20;6.30;;;;;;;5.30;100.00;101469.88;5006614;28;20454;-82
2023/01/30 05:22:37;;;;;;;17.98;6.82;;;;;;;5.30;100.00;101472.44;5003622;28;20470;-81
2023/01/30 05:25:03;;;;;;;17.63;6.47;;;;;;;5.32;100.00;101483.47;4982039;28;20021;-82
2023/01/30 05:27:28;;;;;;;14.88;6.20;;;;;;;5.30;100.00;101481.91;4986796;28;20036;-82
2023/01/30 05:29:54;;;;;;;16.33;7.28;;;;;;;5.37;100.00;101488.41;5000643;28;20023;-82
2023/01/30 05:32:19;;;;;;;17.02;5.82;;;;;;;5.38;100.00;101486.66;4985760;28;20046;-82
2023/01/30 05:34:47;;;;;;;17.77;5.60;;;;;;;5.38;100.00;101471.22;4996810;28;20034;-81
2023/01/30 05:37:12;;;;;;;15.60;5.72;;;;;;;5.28;100.00;101455.44;4986685;28;20069;-82
2023/01/30 05:39:38;;;;;;;13.32;5.65;;;;;;;5.31;100.00;101471.53;4998992;28;20062;-83
2023/01/30 05:42:03;;;;;;;14.25;5.75;;;;;;;5.31;100.00;101471.53;4985942;28;20025;-83
2023/01/30 05:44:29;;;;;;;19.52;6.35;;;;;;;5.35;100.00;101491.97;5005240;28;20034;-82
2023/01/30 05:46:54;;;;;;;13.20;4.80;;;;;;;5.35;100.00;101504.81;5002526;28;20305;-82
2023/01/30 05:49:19;;;;;;;17.65;5.47;;;;;;;5.33;100.00;101505.75;5007488;28;20021;-82
2023/01/30 05:51:45;;;;;;;12.57;4.82;;;;;;;5.32;100.00;101504.06;4997808;28;20042;-83
2023/01/30 05:54:10;;;;;;;15.48;5.03;;;;;;;5.36;100.00;101524.50;4986847;28;20670;-83
2023/01/30 05:56:35;;;;;;;11.25;3.85;;;;;;;5.29;100.00;101517.06;5009199;28;20191;-83
2023/01/30 05:59:01;;;;;;;15.98;3.72;;;;;;;5.32;100.00;101518.66;5010725;28;20029;-82
2023/01/30 06:01:28;;;;;;;12.57;3.45;;;;;;;5.42;100.00;101519.03;4985317;28;20041;-83
2023/01/30 06:03:54;;;;;;;11.57;3.08;;;;;;;5.40;100.00;101515.72;5005349;28;20030;-84
2023/01/30 06:06:20;;;;;;;9.70;2.42;;;;;;;5.48;100.00;101521.31;4986060;28;20034;-83
2023/01/30 06:08:48;;;;;;;13.35;2.97;;;;;;;5.50;100.00;101522.91;5010797;28;20038;-83
2023/01/30 06:11:16;;;;;;;11.73;2.33;;;;;;;5.46;100.00;101511.13;4986642;28;20029;-84
2023/01/30 06:13:42;;;;;;;8.65;2.58;;;;;;;5.44;100.00;101512.06;4990392;28;20806;-84
2023/01/30 06:16:10;;;;;;;12.50;2.40;;;;;;;5.49;100.00;101521.25;5004105;28;20108;-83
2023/01/30 06:18:36;;;;;;;9.65;2.60;;;;;;;5.41;100.00;101527.69;5005304;28;20032;-83
2023/01/30 06:21:02;;;;;;;9.98;2.80;;;;;;;5.32;100.00;101519.47;5004735;28;20038;-83
2023/01/30 06:23:28;;;;;;;12.40;2.67;;;;;;;5.39;100.00;101520.03;5002827;28;20112;-83
2023/01/30 06:25:54;;;;;;;12.77;2.60;;;;;;;5.33;100.00;101526.31;5007356;28;20116;-81
2023/01/30 06:28:20;;;;;;;14.52;2.80;;;;;;;5.31;100.00;101524.72;5002779;28;20452;-83
2023/01/30 06:30:46;;;;;;;15.93;2.53;;;;;;;5.25;100.00;101543.00;5002930;28;20057;-83
2023/01/30 06:33:11;;;;;;;10.27;2.55;;;;;;;5.25;100.00;101550.72;4986480;28;20504;-83
2023/01/30 06:35:38;;;;;;;11.52;2.35;;;;;;;5.20;100.00;101558.66;4987344;28;20034;-83
2023/01/30 06:38:04;;;;;;;14.90;2.58;;;;;;;5.13;100.00;101534.13;4987464;28;20037;-83
2023/01/30 06:40:29;;;;;;;14.13;2.65;;;;;;;5.09;100.00;101526.63;5004339;28;20041;-82
2023/01/30 06:42:54;;;;;;;11.10;2.53;;;;;;;5.04;100.00;101534.56;4998452;28;20026;-82
2023/01/30 06:45:20;;;;;;;9.18;2.10;;;;;;;5.04;100.00;101535.41;5001318;28;20034;-82
2023/01/30 06:47:47;;;;;;;11.07;2.83;;;;;;;4.99;100.00;101536.53;5005351;28;20064;-82
2023/01/30 06:50:14;;;;;;;11.27;2.75;;;;;;;5.00;100.00;101549.31;5006750;28;20037;-82
2023/01/30 06:52:49;;;;;;;13.98;3.20;;;;;;;4.86;100.00;101551.69;4987626;28;20118;-83
2023/01/30 06:55:17;;;;;;;10.85;3.20;;;;;;;4.87;100.00;101534.53;5004283;28;20494;-83
2023/01/30 06:57:43;;;;;;;15.32;2.50;;;;;;;4.79;100.00;101520.28;5006189;28;20110;-82
2023/01/30 07:00:17;;;;;;;13.57;2.88;;;;;;;4.78;100.00;101535.78;5005707;28;20469;-82
2023/01/30 07:02:43;;;;;;;15.18;4.07;;;;;;;4.62;100.00;101543.34;5005800;28;20025;-82
2023/01/30 07:05:09;;;;;;;14.38;3.13;;;;;;;4.70;100.00;101554.13;5005091;28;20026;-83
2023/01/30 07:07:35;;;;;;;14.88;2.63;;;;;;;4.67;100.00;101550.88;4984276;28;20022;-83
2023/01/30 07:10:01;;;;;;;16.60;3.95;;;;;;;4.59;100.00;101552.94;5006494;28;20113;-82
2023/01/30 07:12:27;;;;;;;10.02;2.45;;;;;;;4.56;100.00;101538.50;5002797;28;20547;-82
2023/01/30 07:14:53;;;;;;;18.50;2.72;;;;;;;4.60;100.00;101555.44;5005405;28;20543;-82
2023/01/30 07:17:19;;;;;;;15.05;3.90;;;;;;;4.65;100.00;101568.09;5003407;28;20034;-82
2023/01/30 07:19:45;;;;;;;13.52;2.53;;;;;;;4.59;100.00;101569.19;4989117;28;20080;-82
2023/01/30 07:22:11;;;;;;;15.18;3.60;;;;;;;4.53;100.00;101569.47;5003709;28;20037;-83
2023/01/30 07:24:37;;;;;;;20.25;4.35;;;;;;;4.49;100.00;101573.06;4985933;28;20244;-82
2023/01/30 07:27:02;;;;;;;12.13;2.78;;;;;;;4.46;100.00;101584.31;5000389;28;20022;-82
2023/01/30 07:29:28;;;;;;;11.43;2.88;;;;;;;4.43;100.00;101591.31;4998042;28;20029;-82
2023/01/30 07:31:53;;;;;;;14.23;3.85;;;;;;;4.43;100.00;101611.88;4994401;28;20026;-82
2023/01/30 07:34:18;;;;;;;16.60;3.10;;;;;;;4.40;100.00;101609.44;5002134;28;20381;-82
2023/01/30 07:36:44;;;;;;;18.77;4.35;;;;;;;4.39;100.00;101607.75;4999182;28;20034;-83
2023/01/30 07:39:09;;;;;;;14.32;2.67;;;;;;;4.34;100.00;101581.44;4985861;28;20076;-82
2023/01/30 07:41:35;;;;;;;17.25;3.88;;;;;;;4.29;100.00;101596.22;4985758;28;20029;-82
2023/01/30 07:44:01;;;;;;;20.63;5.05;;;;;;;4.22;100.00;101586.19;5002180;28;20029;-82
2023/01/30 07:46:33;;;;;;;16.63;3.42;;;;;;;4.28;100.00;101597.94;5003263;28;20072;-82
2023/01/30 07:48:59;;;;;;;14.98;3.03;;;;;;;4.33;100.00;101602.88;5003974;28;20025;-83
2023/01/30 07:51:24;;;;;;;13.93;2.58;;;;;;;4.27;100.00;101593.72;5002156;28;20072;-82
2023/01/30 07:53:50;;;;;;;19.25;3.80;;;;;;;4.26;99.82;101608.28;5003110;28;20224;-82
2023/01/30 07:56:22;;;;;;;18.50;3.03;;;;;;;4.25;99.85;101595.53;4986259;28;20075;-83
2023/01/30 07:58:48;;;;;;;14.73;2.58;;;;;;;4.28;99.19;101594.56;4999845;28;20112;-82
2023/01/30 08:01:14;;;;;;;16.67;2.88;;;;;;;4.23;99.29;101598.13;5005755;28;20133;-82
2023/01/30 08:03:40;;;;;;;14.40;2.85;;;;;;;4.22;98.76;101596.47;4994331;28;20529;-82
2023/01/30 08:06:06;;;;;;;19.80;4.18;;;;;;;4.10;99.03;101591.88;4987740;28;20477;-82
2023/01/30 08:08:31;;;;;;;13.65;2.90;;;;;;;4.19;99.00;101612.03;5004761;28;20042;-82
2023/01/30 08:10:57;;;;;;;15.90;3.17;;;;;;;4.12;98.92;101610.59;4998282;28;20315;-82
2023/01/30 08:13:22;;;;;;;21.13;4.70;;;;;;;4.09;98.87;101615.88;5000138;28;20699;-82
2023/01/30 08:15:47;;;;;;;16.33;3.90;;;;;;;4.09;97.83;101621.00;4999336;28;20125;-82
2023/01/30 08:18:13;;;;;;;20.75;5.30;;;;;;;4.11;97.68;101619.19;4998599;28;20035;-82
2023/01/30 08:20:38;;;;;;;22.23;3.83;;;;;;;4.12;97.38;101605.47;4998662;28;20438;-83
2023/01/30 08:23:03;;;;;;;15.13;3.00;;;;;;;4.16;97.22;101607.00;5006688;28;20053;-82
2023/01/30 08:25:29;;;;;;;15.55;3.15;;;;;;;4.12;97.42;101623.44;4996833;28;20026;-82
2023/01/30 08:27:54;;;;;;;20.65;4.15;;;;;;;4.05;97.30;101614.31;4998714;28;20034;-82
2023/01/30 08:30:21;;;;;;;17.67;4.25;;;;;;;4.14;96.32;101634.50;4996155;28;20480;-81
2023/01/30 08:32:46;;;;;;;18.92;2.78;;;;;;;4.13;96.96;101630.25;4996916;28;20036;-82
2023/01/30 08:35:12;;;;;;;17.98;3.10;;;;;;;4.13;96.79;101627.69;5003324;28;20373;-82
2023/01/30 08:37:40;;;;;;;19.05;2.78;;;;;;;4.18;96.95;101641.13;5000620;28;20041;-82
2023/01/30 08:40:08;;;;;;;19.90;3.05;;;;;;;4.15;96.78;101625.88;5000093;28;20371;-82
2023/01/30 08:42:33;;;;;;;19.20;4.30;;;;;;;4.14;96.70;101638.78;5004059;28;20061;-81
2023/01/30 08:44:58;;;;;;;19.00;4.80;;;;;;;4.20;95.82;101657.34;5005494;28;20087;-82
2023/01/30 08:47:24;;;;;;;19.25;3.30;;;;;;;4.29;95.44;101647.56;4998086;28;20030;-81
2023/01/30 08:49:52;;;;;;;19.17;3.33;;;;;;;4.28;95.25;101648.47;4988008;28;20022;-82
2023/01/30 08:52:19;;;;;;;20.80;2.97;;;;;;;4.33;95.55;101654.25;4977798;28;20033;-81
2023/01/30 08:54:44;;;;;;;17.45;2.67;;;;;;;4.29;95.07;101668.94;5004996;28;20051;-82
2023/01/30 08:57:10;;;;;;;17.52;2.88;;;;;;;4.39;94.99;101669.41;5001569;28;20029;-82
2023/01/30 08:59:35;;;;;;;16.75;2.78;;;;;;;4.41;95.11;101672.72;4985211;28;21130;-82
2023/01/30 09:02:01;;;;;;;21.55;4.85;;;;;;;4.48;94.89;101663.88;5000947;28;20036;-81
2023/01/30 09:04:28;;;;;;;18.58;2.78;;;;;;;4.59;93.76;101665.97;4985021;28;20040;-81
2023/01/30 09:06:54;;;;;;;17.27;3.25;;;;;;;4.67;94.03;101679.34;5003273;28;20461;-81
2023/01/30 09:09:19;;;;;;;16.65;2.90;;;;;;;4.72;94.15;101683.38;5002102;28;20038;-80
2023/01/30 09:11:46;;;;;;;17.55;4.13;;;;;;;4.84;93.74;101691.44;4986154;28;20038;-81
2023/01/30 09:14:12;;;;;;;17.20;2.72;;;;;;;4.92;93.91;101694.50;5002071;28;20030;-81
2023/01/30 09:16:38;;;;;;;15.40;2.65;;;;;;;4.93;93.99;101680.75;5001171;28;20571;-81
2023/01/30 09:19:03;;;;;;;16.60;2.67;;;;;;;4.99;93.28;101695.94;5001606;28;20038;-81
2023/01/30 09:21:30;;;;;;;18.92;2.67;;;;;;;5.01;92.90;101673.56;4983671;28;20058;-81
2023/01/30 09:23:56;;;;;;;15.10;2.67;;;;;;;5.05;92.26;101685.38;4984883;28;20018;-81
2023/01/30 09:26:21;;;;;;;11.63;2.33;;;;;;;5.05;93.29;101677.66;5006084;28;20465;-81
2023/01/30 09:28:47;;;;;;;20.15;4.20;;;;;;;5.01;92.40;101682.09;5005318;28;20508;-81
2023/01/30 09:31:13;;;;;;;20.13;4.53;;;;;;;5.01;91.97;101679.53;5004793;28;20851;-81
2023/01/30 09:33:38;;;;;;;19.55;4.28;;;;;;;5.05;92.31;101701.63;4981762;28;20034;-81
2023/01/30 09:36:04;;;;;;;19.27;4.28;;;;;;;5.09;91.43;101696.34;5008038;28;20109;-81
2023/01/30 09:38:29;;;;;;;17.63;4.10;;;;;;;5.12;90.98;101689.34;5002499;28;20029;-81
2023/01/30 09:41:04;;;;;;;15.68;3.42;;;;;;;5.22;90.45;101698.31;5003954;28;20026;-81
2023/01/30 09:43:56;;;;;;;18.70;3.83;;;;;;;5.19;91.36;101693.28;4999245;28;20036;-80
2023/01/30 09:46:45;;;;;;;13.65;2.67;;;;;;;5.24;92.38;101700.81;5008190;28;20116;-80
2023/01/30 09:49:29;;;;;;;14.20;2.50;;;;;;;5.28;89.24;101708.31;4999797;28;20548;-81
2023/01/30 09:52:32;;;;;;;18.10;2.92;;;;;;;5.32;90.22;101722.69;5000767;28;20076;-80
2023/01/30 09:55:12;;;;;;;16.60;2.85;;;;;;;5.38;88.78;101713.03;4945928;28;20090;-81
2023/01/30 09:57:38;;;;;;;14.82;2.63;;;;;;;5.39;90.02;101712.97;4987416;28;20121;-80
2023/01/30 10:00:15;;;;;;;20.42;3.78;;;;;;;5.41;89.08;101724.03;5003301;28;20037;-80
2023/01/30 10:02:58;;;;;;;14.18;2.50;;;;;;;5.42;88.79;101714.56;5005411;28;20030;-80
2023/01/30 10:05:39;;;;;;;16.65;4.00;;;;;;;5.48;86.73;101724.56;5004692;28;20032;-80
2023/01/30 10:08:14;;;;;;;16.15;3.53;;;;;;;5.57;87.27;101742.19;4987353;28;20033;-80
2023/01/30 10:10:51;;;;;;;20.55;3.97;;;;;;;5.59;87.10;101737.78;4986449;28;20061;-80
2023/01/30 10:13:19;;;;;;;13.57;2.80;;;;;;;5.60;87.77;101740.28;4982192;28;20113;-80
2023/01/30 10:15:55;;;;;;;18.42;3.92;;;;;;;5.63;86.42;101734.16;5004936;28;20034;-80
2023/01/30 10:18:26;;;;;;;15.02;2.05;;;;;;;5.64;86.58;101740.97;5008230;28;20049;-80
2023/01/30 10:21:02;;;;;;;11.63;2.38;;;;;;;5.62;87.47;101719.63;4997186;28;20037;-81
2023/01/30 10:23:34;;;;;;;17.45;3.80;;;;;;;5.66;86.33;101749.44;4982095;28;20033;-80
2023/01/30 10:26:13;;;;;;;16.40;2.38;;;;;;;5.66;85.84;101744.31;4995391;28;20076;-80
2023/01/30 10:28:56;;;;;;;17.67;3.72;;;;;;;5.72;86.58;101753.47;5006607;28;20529;-80
2023/01/30 10:31:26;;;;;;;14.13;2.67;;;;;;;5.72;87.32;101744.00;5003327;28;20105;-80
2023/01/30 10:34:02;;;;;;;12.88;2.78;;;;;;;5.73;86.59;101745.69;5003518;28;20014;-80
2023/01/30 10:36:42;;;;;;;15.10;4.13;;;;;;;5.75;85.86;101738.75;4996224;28;20381;-80
2023/01/30 10:39:25;;;;;;;15.00;2.60;;;;;;;5.74;87.01;101742.22;5005335;28;20029;-80
2023/01/30 10:42:11;;;;;;;20.45;4.18;;;;;;;5.77;86.60;101742.06;5003389;28;20029;-80
2023/01/30 10:44:38;;;;;;;17.15;4.72;;;;;;;5.69;86.08;101741.59;5006770;28;20025;-80
2023/01/30 10:47:17;;;;;;;17.73;4.20;;;;;;;5.71;86.52;101752.66;5008277;28;20150;-80
2023/01/30 10:49:45;;;;;;;14.48;2.28;;;;;;;5.82;87.04;101760.72;5007085;28;20030;-79
2023/01/30 10:52:25;;;;;;;20.00;4.18;;;;;;;5.76;85.71;101750.69;5006824;28;20061;-79
2023/01/30 10:54:54;;;;;;;13.65;2.65;;;;;;;5.82;86.65;101758.13;4983257;28;20386;-79
2023/01/30 10:58:05;;;;;;;19.77;4.00;;;;;;;5.84;86.91;101753.75;5007992;28;20473;-79
2023/01/30 11:00:40;;;;;;;13.50;3.55;;;;;;;5.80;85.78;101752.22;4980840;28;20132;-81
2023/01/30 11:03:20;;;;;;;16.85;3.83;;;;;;;5.89;87.18;101757.84;5002486;28;20022;-79
2023/01/30 11:05:48;;;;;;;18.90;3.72;;;;;;;5.99;87.19;101756.53;5001321;28;20034;-80
2023/01/30 11:08:21;;;;;;;18.70;4.10;;;;;;;5.94;87.21;101749.03;5007437;28;20025;-80
2023/01/30 11:10:47;;;;;;;21.13;4.47;;;;;;;6.00;87.07;101748.75;4999805;28;20033;-81
2023/01/30 11:13:18;;;;;;;20.00;3.22;;;;;;;6.05;86.56;101751.94;5005490;28;20034;-79
2023/01/30 11:15:47;;;;;;;19.60;4.07;;;;;;;6.07;85.34;101749.28;5006788;28;20037;-80
2023/01/30 11:18:14;;;;;;;17.88;3.88;;;;;;;6.06;85.89;101747.63;5005864;28;20041;-80
2023/01/30 11:21:18;;;;;;;20.65;4.35;;;;;;;6.13;85.15;101754.13;5003909;28;20045;-81
2023/01/30 11:23:43;;;;;;;19.85;4.45;;;;;;;6.10;83.86;101759.44;5000994;28;20450;-80
2023/01/30 11:26:22;;;;;;;15.73;2.92;;;;;;;6.24;84.43;101754.44;5007319;28;20017;-80
2023/01/30 11:28:47;;;;;;;18.90;4.15;;;;;;;6.05;84.70;101751.09;4990964;28;20066;-80
2023/01/30 11:31:29;;;;;;;18.85;2.90;;;;;;;6.10;84.92;101759.44;4997996;28;20029;-80
2023/01/30 11:34:12;;;;;;;18.65;4.55;;;;;;;6.03;84.33;101748.59;5002231;28;20108;-79
2023/01/30 11:36:37;;;;;;;14.18;3.25;;;;;;;6.05;84.58;101745.94;4997866;28;20121;-79